Hamilton, Indiana
Current Conditions -  °F | °C
As of 4:15 AM on Saturday 22 Nov 2014 (Local Time) from KANQ Reporting Station
Overcast Overcast  
Wind Chill: 20°   Ceiling: 2200
Heat Index: 27°   Visibility: 10mi
Dew Point: 18°   Wind: 6mph
Humidity: 69%   Direction: 170°S
Pressure: 30.17"   Gusts: NA
Location:  41.53°N, 84.92°W
Report Text: KANQ 220915Z AUTO 17005KT 10SM FEW015 OVC022 M03/M08 A3017 RMK
Loading
Personal Weather Stations






























Interactive Weather Map New forecast layout! Learn more

10-Day Weather Forecast

Advertisements
Track Severe Weather on mobile